^^
Your Local Weather - Clay, NY Station Historical Data
Daily Summary for January 12, 2018 Units:  English    Metric   Both
« Previous Day
Next Day »
Daily Weekly Monthly Yearly Custom
  High: Low: Average:
Temperature: 59.3 °F 17.6 °F 45.6 °F
Dew Point: 57.9 °F 15.4 °F 43.3 °F
Humidity: 95% 87% 92%
Wind Speed: 8.0mph 0.0mph 3.5mph
Wind Gust: 14.0mph - -
Wind- - SW
Pressure: 29.88 in 29.52 in -
Precipitation: 1.21 in    
Historical Graphs
 
 
Tabular Data for January 12, 2018
Time Temperature Dew Point Pressure Wind Wind Speed Wind Gust Humidity Rainfall Rate (Hourly) solar
00:02 51.6 °F 48.2 °F 29.88 in South 3.0 mph 4.0 mph 88% 0.17 in 0 W/m2
00:08 51.9 °F 48.8 °F 29.88 in SSE 5.0 mph 5.0 mph 89% 0.08 in 0 W/m2
00:20 52.1 °F 49.0 °F 29.88 in South 4.0 mph 9.0 mph 89% 0.11 in 0 W/m2
00:26 52.4 °F 49.3 °F 29.88 in SSW 3.0 mph 9.0 mph 89% 0.16 in 0 W/m2
00:32 52.7 °F 49.5 °F 29.88 in SSE 2.0 mph 4.0 mph 89% 0.08 in 0 W/m2
00:38 53.1 °F 49.9 °F 29.87 in South 4.0 mph 6.0 mph 89% 0.05 in 0 W/m2
00:43 53.5 °F 50.3 °F 29.86 in SSE 4.0 mph 6.0 mph 89% 0.05 in 0 W/m2
00:50 54.0 °F 50.8 °F 29.86 in South 5.0 mph 5.0 mph 89% 0.04 in 0 W/m2
00:55 54.3 °F 50.8 °F 29.85 in SE 6.0 mph 7.0 mph 88% 0.00 in 0 W/m2
01:02 54.3 °F 50.8 °F 29.85 in South 6.0 mph 6.0 mph 88% 0.00 in 0 W/m2
01:08 54.3 °F 50.8 °F 29.85 in South 4.0 mph 6.0 mph 88% 0.00 in 0 W/m2
01:14 54.5 °F 50.7 °F 29.85 in South 4.0 mph 4.0 mph 87% 0.04 in 0 W/m2
01:19 54.5 °F 50.7 °F 29.84 in SW 5.0 mph 5.0 mph 87% 0.04 in 0 W/m2
01:26 54.6 °F 50.8 °F 29.84 in South 4.0 mph 5.0 mph 87% 0.04 in 0 W/m2
01:32 54.5 °F 50.7 °F 29.84 in SW 4.0 mph 4.0 mph 87% 0.00 in 0 W/m2
01:44 54.5 °F 50.7 °F 29.84 in SSW 3.0 mph 4.0 mph 87% 0.00 in 0 W/m2
01:49 54.5 °F 51.0 °F 29.84 in South 3.0 mph 3.0 mph 88% 0.05 in 0 W/m2
02:02 54.7 °F 50.9 °F 29.83 in SSE 4.0 mph 7.0 mph 87% 0.06 in 0 W/m2
02:08 54.4 °F 50.6 °F 29.83 in SSW 4.0 mph 7.0 mph 87% 0.06 in 0 W/m2
02:19 54.7 °F 51.2 °F 29.82 in SE 4.0 mph 7.0 mph 88% 0.00 in 0 W/m2
02:30 54.6 °F 50.8 °F 29.82 in SSE 4.0 mph 6.0 mph 87% 0.15 in 0 W/m2
02:36 54.7 °F 51.2 °F 29.82 in SSE 4.0 mph 6.0 mph 88% 0.16 in 0 W/m2
02:43 54.8 °F 51.3 °F 29.82 in SSE 5.0 mph 5.0 mph 88% 0.10 in 0 W/m2
02:49 54.9 °F 51.4 °F 29.81 in SSE 5.0 mph 10.0 mph 88% 0.10 in 0 W/m2
02:56 54.9 °F 51.4 °F 29.81 in South 5.0 mph 10.0 mph 88% 0.05 in 0 W/m2
03:02 54.9 °F 51.4 °F 29.80 in South 5.0 mph 6.0 mph 88% 0.04 in 0 W/m2
03:08 54.7 °F 51.2 °F 29.81 in South 5.0 mph 6.0 mph 88% 0.09 in 0 W/m2
03:13 54.6 °F 51.4 °F 29.80 in South 4.0 mph 5.0 mph 89% 0.11 in 0 W/m2
03:20 54.9 °F 51.7 °F 29.81 in SW 5.0 mph 8.0 mph 89% 0.11 in 0 W/m2
03:26 54.8 °F 51.6 °F 29.80 in South 6.0 mph 8.0 mph 89% 0.10 in 0 W/m2
03:32 54.6 °F 51.4 °F 29.80 in SSE 5.0 mph 5.0 mph 89% 0.08 in 0 W/m2
03:46 54.3 °F 51.1 °F 29.77 in SSE 6.0 mph 8.0 mph 89% 0.04 in 0 W/m2
03:52 54.3 °F 51.4 °F 29.77 in South 6.0 mph 6.0 mph 90% 0.00 in 0 W/m2
03:58 54.7 °F 51.8 °F 29.77 in South 6.0 mph 6.0 mph 90% 0.00 in 0 W/m2
04:04 55.0 °F 51.8 °F 29.77 in SE 5.0 mph 6.0 mph 89% 0.00 in 0 W/m2
04:10 55.0 °F 51.8 °F 29.77 in South 5.0 mph 5.0 mph 89% 0.00 in 0 W/m2
04:15 55.1 °F 51.9 °F 29.77 in SSW 4.0 mph 6.0 mph 89% 0.00 in 0 W/m2
04:22 55.4 °F 52.2 °F 29.78 in SSW 4.0 mph 5.0 mph 89% 0.00 in 0 W/m2
04:28 55.5 °F 52.0 °F 29.77 in SSE 4.0 mph 6.0 mph 88% 0.00 in 0 W/m2
04:34 55.4 °F 51.9 °F 29.77 in SSW 4.0 mph 7.0 mph 88% 0.00 in 0 W/m2
04:39 55.5 °F 52.0 °F 29.76 in South 5.0 mph 7.0 mph 88% 0.00 in 0 W/m2
04:46 55.7 °F 52.2 °F 29.77 in SSW 6.0 mph 12.0 mph 88% 0.00 in 0 W/m2
04:52 55.7 °F 52.2 °F 29.77 in SSE 6.0 mph 6.0 mph 88% 0.00 in 0 W/m2
04:58 56.0 °F 52.2 °F 29.77 in SSE 6.0 mph 6.0 mph 87% 0.00 in 0 W/m2
05:03 55.9 °F 52.1 °F 29.77 in South 5.0 mph 6.0 mph 87% 0.00 in 0 W/m2
05:14 56.1 °F 52.3 °F 29.77 in South 5.0 mph 5.0 mph 87% 0.00 in 0 W/m2
05:20 55.8 °F 52.3 °F 29.77 in South 5.0 mph 5.0 mph 88% 0.16 in 0 W/m2
05:25 55.5 °F 52.0 °F 29.76 in South 3.0 mph 7.0 mph 88% 0.08 in 0 W/m2
05:32 54.9 °F 51.4 °F 29.76 in SSE 2.0 mph 3.0 mph 88% 0.10 in 0 W/m2
05:38 54.5 °F 51.3 °F 29.76 in SSE 3.0 mph 6.0 mph 89% 0.32 in 0 W/m2
05:44 54.5 °F 51.6 °F 29.76 in South 3.0 mph 4.0 mph 90% 0.21 in 0 W/m2
05:49 54.6 °F 51.7 °F 29.75 in SE 3.0 mph 4.0 mph 90% 0.37 in 0 W/m2
06:02 54.7 °F 52.1 °F 29.74 in South 1.0 mph 2.0 mph 91% 0.27 in 0 W/m2
06:08 54.7 °F 52.1 °F 29.75 in Calm   2.0 mph 91% 0.39 in 0 W/m2
06:13 54.4 °F 51.8 °F 29.75 in Calm     91% 0.30 in 0 W/m2
06:19 52.1 °F 49.3 °F 29.74 in Calm     90% 0.47 in 0 W/m2
06:25 51.9 °F 49.4 °F 29.74 in Calm     91% 0.85 in 0 W/m2
06:35 52.1 °F 49.8 °F 29.73 in South 1.0 mph 1.0 mph 92% 0.67 in 0 W/m2
06:42 51.6 °F 49.1 °F 29.73 in South 1.0 mph 1.0 mph 91% 0.51 in 0 W/m2
06:48 50.9 °F 48.7 °F 29.73 in Calm   1.0 mph 92% 0.78 in 0 W/m2
06:54 50.8 °F 48.6 °F 29.72 in Calm   2.0 mph 92% 0.38 in 0 W/m2
06:59 50.9 °F 48.7 °F 29.71 in South 1.0 mph 1.0 mph 92% 0.31 in 0 W/m2
07:13 52.2 °F 50.2 °F 29.71 in Calm     93% 0.27 in 0 W/m2
07:20 51.6 °F 49.6 °F 29.70 in Calm     93% 0.27 in 0 W/m2
07:26 51.5 °F 49.5 °F 29.70 in Calm     93% 0.13 in 0 W/m2
07:32 51.5 °F 49.5 °F 29.70 in Calm     93% 0.11 in 0 W/m2
07:38 50.6 °F 48.7 °F 29.70 in Calm   1.0 mph 93% 0.08 in 0 W/m2
07:43 50.8 °F 48.8 °F 29.70 in Calm     93% 0.06 in 0 W/m2
07:54 50.5 °F 48.6 °F 29.69 in Calm   2.0 mph 93% 0.06 in 0 W/m2
08:00 51.2 °F 49.2 °F 29.69 in South 1.0 mph 1.0 mph 93% 0.05 in 0 W/m2
08:06 51.1 °F 49.1 °F 29.69 in South 1.0 mph 1.0 mph 93% 0.06 in 7 W/m2
08:12 51.8 °F 49.8 °F 29.69 in Calm   1.0 mph 93% 0.11 in 9 W/m2
08:18 51.7 °F 49.7 °F 29.69 in Calm   1.0 mph 93% 0.08 in 11 W/m2
08:24 51.7 °F 49.7 °F 29.69 in Calm   1.0 mph 93% 0.07 in 14 W/m2
08:30 52.0 °F 50.3 °F 29.69 in South 1.0 mph 2.0 mph 94% 0.08 in 21 W/m2
08:35 52.0 °F 50.3 °F 29.69 in South 2.0 mph 2.0 mph 94% 0.13 in 18 W/m2
08:42 51.9 °F 49.9 °F 29.69 in South 2.0 mph 2.0 mph 93% 0.05 in 23 W/m2
08:48 51.9 °F 50.2 °F 29.69 in South 2.0 mph 3.0 mph 94% 0.00 in 21 W/m2
08:54 52.0 °F 50.3 °F 29.69 in South 2.0 mph 3.0 mph 94% 0.00 in 19 W/m2
08:59 51.9 °F 50.2 °F 29.68 in South 1.0 mph 1.0 mph 94% 0.09 in 19 W/m2
09:05 51.9 °F 50.2 °F 29.68 in South 1.0 mph 3.0 mph 94% 0.07 in 23 W/m2
09:12 52.1 °F 50.4 °F 29.68 in South 2.0 mph 2.0 mph 94% 0.07 in 28 W/m2
09:18 52.0 °F 50.3 °F 29.68 in East 2.0 mph 4.0 mph 94% 0.07 in 35 W/m2
09:24 51.8 °F 50.1 °F 29.67 in East 2.0 mph 2.0 mph 94% 0.05 in 46 W/m2
09:29 52.1 °F 50.4 °F 29.67 in SSE 2.0 mph 3.0 mph 94% 0.05 in 47 W/m2
09:35 52.0 °F 50.3 °F 29.67 in SSE 1.0 mph 3.0 mph 94% 0.05 in 37 W/m2
09:42 52.0 °F 50.3 °F 29.67 in Calm   2.0 mph 94% 0.00 in 28 W/m2
09:48 51.9 °F 50.2 °F 29.66 in SE 1.0 mph 2.0 mph 94% 0.00 in 26 W/m2
09:53 51.8 °F 50.1 °F 29.66 in SE 1.0 mph 1.0 mph 94% 0.00 in 32 W/m2
09:59 51.9 °F 50.2 °F 29.66 in SE 1.0 mph 1.0 mph 94% 0.00 in 28 W/m2
10:10 51.2 °F 49.5 °F 29.65 in SE 1.0 mph 2.0 mph 94% 0.00 in 40 W/m2
10:15 51.4 °F 49.7 °F 29.65 in SE 1.0 mph 2.0 mph 94% 0.00 in 46 W/m2
10:22 51.8 °F 50.1 °F 29.64 in ENE 2.0 mph 2.0 mph 94% 0.00 in 53 W/m2
10:28 51.8 °F 50.1 °F 29.63 in East 2.0 mph 2.0 mph 94% 0.00 in 74 W/m2
10:34 52.1 °F 50.4 °F 29.63 in ENE 2.0 mph 3.0 mph 94% 0.00 in 79 W/m2
10:40 51.8 °F 50.1 °F 29.63 in ENE 2.0 mph 2.0 mph 94% 0.00 in 90 W/m2
10:45 52.3 °F 50.6 °F 29.63 in ENE 2.0 mph 2.0 mph 94% 0.00 in 95 W/m2
10:52 52.3 °F 50.6 °F 29.63 in ENE 2.0 mph 2.0 mph 94% 0.00 in 81 W/m2
10:58 52.6 °F 50.9 °F 29.63 in SSE 2.0 mph 3.0 mph 94% 0.00 in 102 W/m2
11:04 52.7 °F 51.0 °F 29.62 in East 2.0 mph 3.0 mph 94% 0.00 in 90 W/m2
11:10 52.6 °F 50.9 °F 29.61 in East 2.0 mph 2.0 mph 94% 0.00 in 105 W/m2
11:15 52.1 °F 50.4 °F 29.60 in ENE 2.0 mph 4.0 mph 94% 0.00 in 113 W/m2
11:22 52.4 °F 51.0 °F 29.59 in ESE 2.0 mph 2.0 mph 95% 0.00 in 77 W/m2
11:28 52.6 °F 50.9 °F 29.59 in NE 2.0 mph 4.0 mph 94% 0.00 in 90 W/m2
11:33 53.1 °F 51.7 °F 29.59 in NE 1.0 mph 2.0 mph 95% 0.00 in 118 W/m2
11:39 52.6 °F 51.2 °F 29.59 in Calm     95% 0.00 in 74 W/m2
11:46 52.6 °F 50.9 °F 29.59 in Calm   1.0 mph 94% 0.00 in 69 W/m2
11:52 51.8 °F 50.4 °F 29.58 in Calm     95% 0.00 in 77 W/m2
11:58 51.3 °F 49.6 °F 29.58 in Calm   1.0 mph 94% 0.00 in 74 W/m2
12:03 51.3 °F 49.6 °F 29.57 in Calm     94% 0.00 in 65 W/m2
12:09 50.6 °F 48.9 °F 29.56 in Calm   1.0 mph 94% 0.00 in 58 W/m2
12:16 50.4 °F 48.7 °F 29.56 in Calm   1.0 mph 94% 0.00 in 49 W/m2
12:22 50.7 °F 49.0 °F 29.56 in Calm     94% 0.00 in 26 W/m2
12:33 51.6 °F 49.9 °F 29.56 in Calm   1.0 mph 94% 0.12 in 30 W/m2
12:39 51.7 °F 50.3 °F 29.56 in Calm     95% 0.06 in 56 W/m2
12:46 51.9 °F 50.5 °F 29.56 in Calm     95% 0.05 in 46 W/m2
12:52 51.5 °F 49.8 °F 29.55 in NE 1.0 mph 2.0 mph 94% 0.05 in 30 W/m2
12:59 50.9 °F 49.2 °F 29.55 in NE 1.0 mph 1.0 mph 94% 0.00 in 37 W/m2
13:12 50.5 °F 48.8 °F 29.54 in NE 1.0 mph 1.0 mph 94% 0.09 in 58 W/m2
13:23 54.9 °F 53.5 °F 29.54 in South 1.0 mph 2.0 mph 95% 0.00 in 51 W/m2
13:30 56.6 °F 55.2 °F 29.53 in South 2.0 mph 2.0 mph 95% 0.00 in 44 W/m2
13:35 57.0 °F 55.6 °F 29.53 in South 2.0 mph 4.0 mph 95% 0.00 in 37 W/m2
13:48 57.9 °F 56.5 °F 29.52 in South 1.0 mph 2.0 mph 95% 0.00 in 60 W/m2
14:02 58.4 °F 57.0 °F 29.53 in South 2.0 mph 6.0 mph 95% 0.05 in 46 W/m2
14:08 58.6 °F 57.2 °F 29.53 in South 3.0 mph 6.0 mph 95% 0.04 in 30 W/m2
14:13 58.7 °F 57.3 °F 29.52 in SSW 3.0 mph 4.0 mph 95% 0.00 in 28 W/m2
14:28 59.0 °F 57.6 °F 29.52 in SSE 3.0 mph 6.0 mph 95% 0.00 in 74 W/m2
14:33 59.1 °F 57.7 °F 29.52 in SSE 4.0 mph 4.0 mph 95% 0.00 in 81 W/m2
14:39 59.2 °F 57.8 °F 29.52 in WSW 4.0 mph 7.0 mph 95% 0.00 in 97 W/m2
14:46 59.3 °F 57.9 °F 29.52 in SSE 5.0 mph 7.0 mph 95% 0.00 in 114 W/m2
14:52 59.3 °F 57.6 °F 29.52 in SSE 4.0 mph 5.0 mph 94% 0.00 in 88 W/m2
14:59 59.2 °F 57.5 °F 29.52 in SSE 3.0 mph 3.0 mph 94% 0.00 in 70 W/m2
15:05 58.9 °F 56.9 °F 29.53 in WNW 4.0 mph 5.0 mph 93% 0.00 in 14 W/m2
15:12 54.3 °F 50.8 °F 29.56 in WNW 5.0 mph 5.0 mph 88% 0.00 in 19 W/m2
15:28 45.3 °F 42.2 °F 29.57 in WNW 6.0 mph 7.0 mph 89% 0.00 in 23 W/m2
15:33 44.2 °F 41.5 °F 29.57 in NW 5.0 mph 6.0 mph 90% 0.00 in 35 W/m2
15:39 43.5 °F 41.0 °F 29.58 in NW 4.0 mph 5.0 mph 91% 0.00 in 14 W/m2
15:50 42.7 °F 40.5 °F 29.59 in WNW 5.0 mph 5.0 mph 92% 0.00 in 9 W/m2
15:55 42.3 °F 40.1 °F 29.60 in WNW 5.0 mph 9.0 mph 92% 0.00 in 5 W/m2
16:02 42.0 °F 39.8 °F 29.61 in WNW 4.0 mph 5.0 mph 92% 0.00 in 0 W/m2
16:12 41.4 °F 39.5 °F 29.63 in WNW 5.0 mph 7.0 mph 93% 0.00 in 0 W/m2
16:24 40.6 °F 38.7 °F 29.64 in West 5.0 mph 5.0 mph 93% 0.00 in 0 W/m2
16:29 40.3 °F 38.4 °F 29.64 in NW 6.0 mph 6.0 mph 93% 0.00 in 0 W/m2
16:36 40.0 °F 38.1 °F 29.65 in NW 5.0 mph 7.0 mph 93% 0.00 in 0 W/m2
16:42 39.8 °F 37.9 °F 29.66 in WSW 5.0 mph 6.0 mph 93% 0.00 in 0 W/m2
16:48 39.6 °F 37.7 °F 29.66 in WNW 5.0 mph 6.0 mph 93% 0.00 in 0 W/m2
16:53 39.4 °F 37.5 °F 29.67 in NW 4.0 mph 5.0 mph 93% 0.00 in 0 W/m2
17:00 39.3 °F 37.4 °F 29.68 in West 5.0 mph 5.0 mph 93% 0.00 in 0 W/m2
17:06 39.1 °F 37.2 °F 29.68 in West 5.0 mph 7.0 mph 93% 0.00 in 0 W/m2
17:12 39.0 °F 37.1 °F 29.69 in WNW 5.0 mph 5.0 mph 93% 0.00 in 0 W/m2
17:18 38.9 °F 37.0 °F 29.70 in NW 5.0 mph 6.0 mph 93% 0.00 in 0 W/m2
17:24 38.6 °F 36.8 °F 29.70 in NW 5.0 mph 9.0 mph 93% 0.00 in 0 W/m2
17:30 38.4 °F 36.6 °F 29.71 in West 5.0 mph 6.0 mph 93% 0.00 in 0 W/m2
17:35 38.0 °F 36.2 °F 29.72 in NW 5.0 mph 6.0 mph 93% 0.00 in 0 W/m2
17:42 37.8 °F 36.0 °F 29.72 in NW 4.0 mph 4.0 mph 93% 0.00 in 0 W/m2
17:48 37.5 °F 35.4 °F 29.71 in NW 4.0 mph 7.0 mph 92% 0.00 in 0 W/m2
17:56 37.2 °F 35.4 °F 29.72 in WNW 4.0 mph 4.0 mph 93% 0.00 in 0 W/m2
18:02 36.9 °F 35.1 °F 29.73 in NW 2.0 mph 5.0 mph 93% 0.00 in 0 W/m2
18:09 36.5 °F 34.7 °F 29.74 in WNW 4.0 mph 4.0 mph 93% 0.00 in 0 W/m2
18:16 36.2 °F 34.1 °F 29.74 in WNW 4.0 mph 4.0 mph 92% 0.00 in 0 W/m2
18:22 35.8 °F 33.7 °F 29.75 in NW 5.0 mph 11.0 mph 92% 0.00 in 0 W/m2
18:28 35.4 °F 33.3 °F 29.75 in NW 5.0 mph 5.0 mph 92% 0.00 in 0 W/m2
18:36 35.2 °F 33.1 °F 29.75 in NNW 4.0 mph 4.0 mph 92% 0.00 in 0 W/m2
18:52 34.5 °F 32.4 °F 29.74 in NW 4.0 mph 5.0 mph 92% 0.00 in 0 W/m2
18:58 34.1 °F 32.0 °F 29.76 in NW 5.0 mph 9.0 mph 92% 0.00 in 0 W/m2
19:04 33.9 °F 31.8 °F 29.76 in NNW 5.0 mph 6.0 mph 92% 0.00 in 0 W/m2
19:09 33.7 °F 31.6 °F 29.76 in NW 4.0 mph 4.0 mph 92% 0.00 in 0 W/m2
19:16 33.5 °F 31.4 °F 29.76 in NW 3.0 mph 4.0 mph 92% 0.00 in 0 W/m2
19:22 33.2 °F 31.1 °F 29.76 in NNW 3.0 mph 7.0 mph 92% 0.00 in 0 W/m2
19:28 32.8 °F 30.7 °F 29.76 in NNE 4.0 mph 7.0 mph 92% 0.00 in 0 W/m2
19:43 32.1 °F 30.0 °F 29.77 in NW 5.0 mph 8.0 mph 92% 0.00 in 0 W/m2
19:52 31.6 °F 29.5 °F 29.77 in NNW 5.0 mph 8.0 mph 92% 0.00 in 0 W/m2
19:58 31.4 °F 29.3 °F 29.78 in NNW 5.0 mph 8.0 mph 92% 0.00 in 0 W/m2
20:05 30.7 °F 28.7 °F 29.79 in NW 5.0 mph 14.0 mph 92% 0.00 in 0 W/m2
20:12 30.5 °F 28.5 °F 29.79 in NW 5.0 mph 8.0 mph 92% 0.00 in 0 W/m2
20:18 30.3 °F 28.3 °F 29.79 in NW 5.0 mph 9.0 mph 92% 0.00 in 0 W/m2
20:24 29.6 °F 27.6 °F 29.79 in NNW 6.0 mph 8.0 mph 92% 0.00 in 0 W/m2
20:29 29.0 °F 27.0 °F 29.81 in North 7.0 mph 8.0 mph 92% 0.00 in 0 W/m2
20:36 28.7 °F 26.7 °F 29.80 in NNW 6.0 mph 8.0 mph 92% 0.00 in 0 W/m2
20:42 28.4 °F 26.4 °F 29.81 in NNW 7.0 mph 7.0 mph 92% 0.00 in 0 W/m2
20:48 28.1 °F 26.1 °F 29.80 in NW 6.0 mph 7.0 mph 92% 0.00 in 0 W/m2
20:53 27.8 °F 25.8 °F 29.80 in NW 5.0 mph 7.0 mph 92% 0.00 in 0 W/m2
21:00 27.3 °F 25.3 °F 29.81 in NNW 6.0 mph 10.0 mph 92% 0.00 in 0 W/m2
21:06 26.9 °F 24.9 °F 29.81 in NW 6.0 mph 10.0 mph 92% 0.00 in 0 W/m2
21:24 24.5 °F 22.2 °F 29.82 in WNW 7.0 mph 9.0 mph 91% 0.00 in 0 W/m2
21:30 23.9 °F 21.7 °F 29.81 in NNW 8.0 mph 8.0 mph 91% 0.00 in 0 W/m2
21:39 23.3 °F 21.1 °F 29.82 in North 8.0 mph 9.0 mph 91% 0.00 in 0 W/m2
21:45 22.9 °F 20.7 °F 29.82 in NNW 7.0 mph 12.0 mph 91% 0.00 in 0 W/m2
21:52 22.4 °F 20.2 °F 29.82 in NNW 7.0 mph 11.0 mph 91% 0.00 in 0 W/m2
21:58 22.2 °F 20.0 °F 29.83 in NNW 6.0 mph 11.0 mph 91% 0.00 in 0 W/m2
22:03 22.0 °F 19.8 °F 29.82 in NW 6.0 mph 10.0 mph 91% 0.00 in 0 W/m2
22:09 21.6 °F 19.4 °F 29.81 in NW 6.0 mph 6.0 mph 91% 0.00 in 0 W/m2
22:16 21.3 °F 19.1 °F 29.80 in NW 6.0 mph 9.0 mph 91% 0.00 in 0 W/m2
22:28 20.9 °F 18.7 °F 29.79 in NNE 6.0 mph 10.0 mph 91% 0.00 in 0 W/m2
22:34 20.6 °F 18.4 °F 29.78 in WNW 6.0 mph 10.0 mph 91% 0.00 in 0 W/m2
22:40 20.3 °F 18.1 °F 29.78 in NW 7.0 mph 7.0 mph 91% 0.00 in 0 W/m2
22:45 20.3 °F 18.1 °F 29.79 in NNW 6.0 mph 7.0 mph 91% 0.00 in 0 W/m2
22:52 20.2 °F 18.0 °F 29.79 in NW 4.0 mph 5.0 mph 91% 0.00 in 0 W/m2
22:58 20.1 °F 17.9 °F 29.80 in NW 4.0 mph 5.0 mph 91% 0.00 in 0 W/m2
23:04 19.9 °F 17.7 °F 29.81 in WSW 5.0 mph 9.0 mph 91% 0.00 in 0 W/m2
23:10 19.4 °F 17.2 °F 29.80 in NNW 5.0 mph 5.0 mph 91% 0.00 in 0 W/m2
23:15 19.1 °F 16.9 °F 29.80 in NNW 5.0 mph 6.0 mph 91% 0.00 in 0 W/m2
23:22 18.9 °F 16.7 °F 29.80 in NW 6.0 mph 6.0 mph 91% 0.00 in 0 W/m2
23:34 18.6 °F 16.4 °F 29.81 in NNW 6.0 mph 8.0 mph 91% 0.00 in 0 W/m2
23:39 18.4 °F 16.2 °F 29.81 in NNW 6.0 mph 9.0 mph 91% 0.00 in 0 W/m2
23:52 17.8 °F 15.6 °F 29.80 in NW 5.0 mph 6.0 mph 91% 0.00 in 0 W/m2
23:58 17.6 °F 15.4 °F 29.79 in North 6.0 mph 9.0 mph 91% 0.00 in 0 W/m2
Country Meadow, Clay, NY, USA
Compliments of Weather Underground - 2 mb